Time;durP1;ratioP1;P1;durP2;ratioP2;P2;SDS_P1;SDS_P2;PMS_P1;PMS_P2;Temp;Humidity;BMP_temperature;BMP_pressure;BME280_temperature;BME280_humidity;BME280_pressure;Samples;Min_cycle;Max_cycle;Signal;HPM_P1;HPM_P2
2021/10/01 00:02:19;;;;;;;5.28;2.45;;;;;;;13.18;69.02;101817.56;5110017;28;20036;-50
2021/10/01 00:04:46;;;;;;;8.70;2.30;;;;;;;13.08;70.32;101825.66;5109400;28;20406;-50
2021/10/01 00:07:14;;;;;;;8.68;2.67;;;;;;;13.05;69.89;101817.16;5108851;28;20055;-54
2021/10/01 00:09:42;;;;;;;4.47;2.28;;;;;;;13.03;69.60;101820.16;5112032;28;20074;-52
2021/10/01 00:12:10;;;;;;;5.07;2.22;;;;;;;13.07;71.65;101815.00;5110991;28;20055;-52
2021/10/01 00:14:38;;;;;;;7.22;2.08;;;;;;;13.12;72.05;101813.13;5105447;28;20047;-55
2021/10/01 00:17:05;;;;;;;5.70;2.20;;;;;;;13.25;69.85;101817.31;5115079;28;20046;-52
2021/10/01 00:19:34;;;;;;;6.78;2.15;;;;;;;13.25;69.21;101811.84;5115260;28;20039;-53
2021/10/01 00:22:03;;;;;;;4.88;2.10;;;;;;;13.12;68.74;101809.56;5114086;28;20154;-55
2021/10/01 00:24:31;;;;;;;6.32;2.42;;;;;;;13.04;68.64;101797.19;5113940;28;20403;-55
2021/10/01 00:26:59;;;;;;;4.22;1.85;;;;;;;13.11;69.51;101802.47;5100056;28;20038;-51
2021/10/01 00:29:27;;;;;;;8.20;2.33;;;;;;;13.05;69.69;101798.84;5114239;28;20046;-52
2021/10/01 00:31:55;;;;;;;9.68;2.70;;;;;;;13.01;68.97;101800.44;5114787;28;20039;-53
2021/10/01 00:34:22;;;;;;;4.97;2.00;;;;;;;13.00;68.95;101793.31;5111311;28;20548;-52
2021/10/01 00:36:50;;;;;;;4.75;1.77;;;;;;;12.98;70.36;101798.22;5113213;28;20043;-53
2021/10/01 00:39:17;;;;;;;9.70;2.75;;;;;;;12.94;69.53;101786.13;5115023;28;20043;-54
2021/10/01 00:41:45;;;;;;;5.65;2.25;;;;;;;12.98;69.64;101790.00;5115315;28;20043;-56
2021/10/01 00:44:13;;;;;;;7.18;2.72;;;;;;;12.95;69.51;101787.81;5114563;28;20402;-55
2021/10/01 00:46:40;;;;;;;7.43;2.28;;;;;;;13.00;69.68;101787.84;5109895;28;20047;-54
2021/10/01 00:49:08;;;;;;;6.78;2.40;;;;;;;12.98;68.77;101781.81;5114684;28;20051;-51
2021/10/01 00:51:39;;;;;;;7.65;1.70;;;;;;;13.04;71.86;101789.00;5115208;28;20039;-52
2021/10/01 00:54:08;;;;;;;6.85;2.17;;;;;;;13.12;69.85;101774.81;5113824;28;20830;-52
2021/10/01 00:56:36;;;;;;;5.70;2.30;;;;;;;13.04;68.78;101775.31;5111226;28;20040;-51
2021/10/01 00:59:04;;;;;;;4.80;1.98;;;;;;;13.00;69.89;101768.69;5113564;28;20059;-55
2021/10/01 01:01:31;;;;;;;6.60;2.05;;;;;;;12.98;69.33;101765.41;5114037;28;20115;-54
2021/10/01 01:04:01;;;;;;;5.72;1.95;;;;;;;12.99;71.24;101758.84;5113474;28;20031;-52
2021/10/01 01:06:43;;;;;;;9.27;2.60;;;;;;;13.00;69.72;101760.50;5109764;28;20143;-54
2021/10/01 01:09:37;;;;;;;4.05;1.90;;;;;;;13.12;70.08;101758.41;5114624;28;20043;-53
2021/10/01 01:12:21;;;;;;;3.35;1.77;;;;;;;13.16;69.45;101756.78;5090979;28;20050;-52
2021/10/01 01:14:53;;;;;;;8.73;2.30;;;;;;;13.03;68.46;101754.50;5096463;28;20046;-55
2021/10/01 01:17:46;;;;;;;4.88;1.90;;;;;;;13.04;70.59;101761.63;5110869;28;20401;-51
2021/10/01 01:20:29;;;;;;;7.28;2.20;;;;;;;13.11;69.00;101754.03;5030046;28;20050;-52
2021/10/01 01:23:33;;;;;;;6.15;2.20;;;;;;;13.35;70.33;101756.41;5015061;28;20045;-52
2021/10/01 01:26:26;;;;;;;5.28;2.10;;;;;;;13.41;70.58;101756.16;5017759;28;20053;-53
2021/10/01 01:29:10;;;;;;;5.63;1.85;;;;;;;13.26;69.65;101744.28;5011021;28;20132;-52
2021/10/01 01:31:56;;;;;;;4.93;1.67;;;;;;;13.20;69.78;101746.97;5005499;28;20088;-54
2021/10/01 01:34:35;;;;;;;4.60;2.13;;;;;;;13.18;68.33;101740.94;5014028;28;20049;-54
2021/10/01 01:37:13;;;;;;;4.97;1.83;;;;;;;13.20;69.84;101744.25;4996522;28;20049;-55
2021/10/01 01:39:41;;;;;;;6.47;1.80;;;;;;;13.31;69.42;101734.22;5022527;28;20045;-53
2021/10/01 01:42:09;;;;;;;3.35;1.60;;;;;;;13.39;69.64;101741.09;5014232;28;20408;-53
2021/10/01 01:44:38;;;;;;;8.13;2.17;;;;;;;13.29;68.44;101733.66;4997756;28;20527;-55
2021/10/01 01:47:05;;;;;;;4.70;1.70;;;;;;;13.17;67.98;101727.50;5014233;28;20183;-54
2021/10/01 01:49:34;;;;;;;6.13;1.95;;;;;;;12.99;67.96;101724.09;4993490;28;20132;-52
2021/10/01 01:52:03;;;;;;;4.60;1.80;;;;;;;13.06;68.99;101726.63;5029407;28;20097;-54
2021/10/01 01:54:32;;;;;;;6.68;2.05;;;;;;;13.05;68.88;101719.50;5010658;28;20074;-52
2021/10/01 01:57:02;;;;;;;6.90;2.08;;;;;;;13.00;68.38;101717.53;5042620;28;20077;-53
2021/10/01 01:59:30;;;;;;;5.22;1.90;;;;;;;13.10;68.98;101722.25;5095058;28;20109;-55
2021/10/01 02:02:00;;;;;;;4.78;1.90;;;;;;;13.09;69.08;101711.59;5094199;28;20556;-50
2021/10/01 02:04:30;;;;;;;4.57;1.90;;;;;;;13.18;69.76;101720.94;5112261;28;20032;-52
2021/10/01 02:06:58;;;;;;;6.32;2.05;;;;;;;13.17;69.13;101706.44;5087202;28;20052;-52
2021/10/01 02:09:26;;;;;;;6.20;1.90;;;;;;;13.12;68.34;101709.16;5107539;28;20051;-53
2021/10/01 02:11:54;;;;;;;3.78;1.48;;;;;;;13.13;70.71;101702.59;5088565;28;20051;-55
2021/10/01 02:14:25;;;;;;;5.07;1.95;;;;;;;13.02;67.90;101700.88;5111424;28;20051;-50
2021/10/01 02:16:56;;;;;;;4.82;1.63;;;;;;;12.99;69.57;101694.03;5089986;28;20059;-53
2021/10/01 02:19:25;;;;;;;6.63;2.55;;;;;;;13.22;68.59;101687.31;5093810;28;20044;-54
2021/10/01 02:21:54;;;;;;;5.18;1.77;;;;;;;13.09;68.31;101682.31;5111789;28;20559;-56
2021/10/01 02:24:27;;;;;;;7.13;2.63;;;;;;;13.05;68.47;101685.84;5095046;28;20046;-52
2021/10/01 02:27:21;;;;;;;4.75;2.17;;;;;;;13.02;68.55;101680.91;5110418;28;20043;-56
2021/10/01 02:30:06;;;;;;;4.90;2.15;;;;;;;13.04;68.78;101678.72;5094524;28;20048;-52
2021/10/01 02:32:54;;;;;;;4.57;1.60;;;;;;;13.00;71.03;101686.63;5088032;28;20052;-51
2021/10/01 02:35:21;;;;;;;6.18;1.92;;;;;;;12.98;69.46;101672.38;5112668;28;20131;-51
2021/10/01 02:37:49;;;;;;;5.03;2.05;;;;;;;13.03;70.44;101679.81;5107592;28;20039;-55
2021/10/01 02:40:17;;;;;;;6.13;1.88;;;;;;;13.08;68.43;101669.72;5107894;28;20043;-54
2021/10/01 02:42:45;;;;;;;3.85;1.60;;;;;;;13.11;68.47;101665.66;5111202;28;20066;-53
2021/10/01 02:45:13;;;;;;;4.30;1.73;;;;;;;13.39;68.22;101659.78;5111522;28;20059;-52
2021/10/01 02:47:41;;;;;;;4.28;1.77;;;;;;;13.42;68.53;101659.28;5109671;28;20035;-55
2021/10/01 02:50:17;;;;;;;6.13;2.10;;;;;;;13.24;68.26;101656.13;5109659;28;20035;-54
2021/10/01 02:53:02;;;;;;;7.38;1.90;;;;;;;13.27;69.96;101652.84;5111638;28;20043;-53
2021/10/01 02:55:51;;;;;;;6.82;2.00;;;;;;;13.33;68.64;101646.38;5082735;28;20151;-52
2021/10/01 02:58:29;;;;;;;5.75;1.90;;;;;;;13.24;69.32;101646.00;5108793;28;20071;-50
2021/10/01 03:00:58;;;;;;;9.40;2.03;;;;;;;13.20;68.88;101637.53;5086915;28;20127;-51
2021/10/01 03:03:27;;;;;;;5.50;1.85;;;;;;;13.12;68.64;101642.66;5094056;28;20044;-52
2021/10/01 03:05:59;;;;;;;6.57;1.75;;;;;;;13.17;69.08;101640.75;5111407;28;20458;-51
2021/10/01 03:08:28;;;;;;;3.63;1.55;;;;;;;13.25;69.03;101635.88;5097736;28;20048;-50
2021/10/01 03:10:57;;;;;;;7.10;2.10;;;;;;;13.26;68.04;101634.81;5108676;28;20047;-50
2021/10/01 03:13:26;;;;;;;5.85;1.70;;;;;;;13.20;69.21;101628.47;5105331;28;20050;-51
2021/10/01 03:15:57;;;;;;;3.92;1.85;;;;;;;13.12;69.32;101626.25;5091031;28;20083;-50
2021/10/01 03:18:27;;;;;;;6.43;1.88;;;;;;;13.09;67.49;101626.78;5082278;28;20448;-55
2021/10/01 03:20:55;;;;;;;3.38;1.67;;;;;;;13.14;71.10;101619.41;5091497;28;20044;-51
2021/10/01 03:23:23;;;;;;;5.55;2.20;;;;;;;13.07;68.12;101618.00;5086652;28;20051;-51
2021/10/01 03:25:53;;;;;;;6.38;2.03;;;;;;;13.02;69.40;101616.06;5110129;28;20146;-52
2021/10/01 03:28:22;;;;;;;5.28;1.55;;;;;;;13.05;68.87;101610.06;5092387;28;20040;-54
2021/10/01 03:30:50;;;;;;;6.05;2.05;;;;;;;13.20;69.28;101607.41;5109091;28;20114;-52
2021/10/01 03:33:18;;;;;;;11.00;2.13;;;;;;;13.18;66.97;101598.66;5094122;28;20467;-50
2021/10/01 03:35:47;;;;;;;4.88;1.70;;;;;;;13.04;68.36;101605.69;5110433;28;20097;-52
2021/10/01 03:38:15;;;;;;;7.22;2.30;;;;;;;12.92;67.66;101594.13;5092775;28;20123;-51
2021/10/01 03:40:46;;;;;;;5.95;2.08;;;;;;;12.86;68.16;101601.47;5108656;28;20568;-49
2021/10/01 03:43:15;;;;;;;5.50;2.25;;;;;;;12.99;68.73;101589.25;5114301;28;20043;-51
2021/10/01 03:45:43;;;;;;;19.17;2.25;;;;;;;13.02;69.02;101596.09;5114982;28;20036;-50
2021/10/01 03:48:12;;;;;;;4.50;1.45;;;;;;;13.03;68.75;101590.34;5110686;28;20143;-51
2021/10/01 03:51:00;;;;;;;6.82;1.80;;;;;;;13.03;68.21;101584.88;5107483;28;20031;-49
2021/10/01 03:53:28;;;;;;;5.53;1.98;;;;;;;13.11;68.43;101589.84;5114395;28;20039;-50
2021/10/01 03:55:56;;;;;;;4.47;1.83;;;;;;;13.35;68.19;101573.03;5114475;28;20043;-51
2021/10/01 03:58:24;;;;;;;6.88;2.22;;;;;;;13.22;67.23;101583.31;5114036;28;20040;-51
2021/10/01 04:00:57;;;;;;;5.45;1.80;;;;;;;13.15;69.38;101571.78;5104468;28;20372;-52
2021/10/01 04:03:25;;;;;;;3.88;1.70;;;;;;;13.11;70.06;101567.97;5110858;28;20397;-53
2021/10/01 04:05:55;;;;;;;2.72;1.35;;;;;;;13.08;68.06;101568.47;5114575;28;20171;-51
2021/10/01 04:08:23;;;;;;;4.72;1.95;;;;;;;13.04;67.94;101559.19;5114182;28;20036;-50
2021/10/01 04:10:50;;;;;;;10.35;2.72;;;;;;;12.96;67.57;101548.72;5110605;28;20047;-48
2021/10/01 04:13:39;;;;;;;4.32;1.70;;;;;;;12.92;68.48;101544.91;5111502;28;20136;-54
2021/10/01 04:16:28;;;;;;;6.40;2.22;;;;;;;12.85;67.31;101536.91;5107541;28;20101;-51
2021/10/01 04:19:08;;;;;;;5.68;2.17;;;;;;;12.78;67.49;101530.88;5093821;28;20036;-52
2021/10/01 04:21:35;;;;;;;6.50;2.42;;;;;;;12.98;68.86;101535.59;5110690;28;20047;-51
2021/10/01 04:24:03;;;;;;;4.32;1.90;;;;;;;12.96;68.67;101535.91;5114078;28;20042;-54
2021/10/01 04:26:40;;;;;;;3.80;1.38;;;;;;;12.93;69.31;101532.84;5114544;28;20035;-52
2021/10/01 04:29:08;;;;;;;7.45;2.15;;;;;;;12.92;67.50;101532.03;5114335;28;20074;-50
2021/10/01 04:31:36;;;;;;;5.78;2.10;;;;;;;12.82;68.80;101534.72;5106330;28;20044;-51
2021/10/01 04:34:04;;;;;;;8.38;1.90;;;;;;;12.91;70.76;101529.56;5097822;28;20044;-52
2021/10/01 04:36:33;;;;;;;5.35;1.80;;;;;;;12.94;68.09;101529.00;5113826;28;20565;-55
2021/10/01 04:39:02;;;;;;;5.68;2.22;;;;;;;13.05;67.95;101525.25;5113589;28;20096;-54
2021/10/01 04:41:31;;;;;;;5.15;1.75;;;;;;;13.08;67.84;101532.91;5107967;28;20050;-53
2021/10/01 04:43:58;;;;;;;5.78;2.20;;;;;;;13.05;66.24;101538.09;5097597;28;20071;-51
2021/10/01 04:46:40;;;;;;;6.60;2.20;;;;;;;12.73;65.92;101536.31;5113587;28;20035;-50
2021/10/01 04:49:07;;;;;;;4.18;2.17;;;;;;;12.56;65.67;101534.56;5114875;28;20114;-54
2021/10/01 04:51:35;;;;;;;5.13;2.03;;;;;;;12.46;66.03;101526.31;5111594;28;20502;-53
2021/10/01 04:54:03;;;;;;;4.72;1.67;;;;;;;12.46;66.73;101520.00;5092037;28;20051;-52
2021/10/01 04:56:31;;;;;;;4.80;1.77;;;;;;;12.48;66.68;101520.56;5113419;28;20074;-52
2021/10/01 04:58:59;;;;;;;8.30;1.95;;;;;;;12.50;67.60;101527.41;4403280;28;10000726;-50
2021/10/01 05:01:53;;;;;;;6.95;1.73;;;;;;;12.47;66.36;101524.41;5084112;28;20040;-52
2021/10/01 05:04:39;;;;;;;4.63;2.10;;;;;;;12.43;66.45;101517.81;5104582;28;20509;-52
2021/10/01 05:07:22;;;;;;;5.63;2.20;;;;;;;12.42;66.68;101518.91;5097046;28;20047;-51
2021/10/01 05:10:09;;;;;;;6.20;2.08;;;;;;;12.34;66.88;101518.31;5111899;28;20058;-50
2021/10/01 05:13:09;;;;;;;6.85;2.30;;;;;;;12.34;66.53;101521.03;5066697;28;20040;-51
2021/10/01 05:16:08;;;;;;;7.97;2.35;;;;;;;12.36;66.01;101510.66;5029067;28;20054;-48
2021/10/01 05:18:55;;;;;;;6.10;1.90;;;;;;;12.30;66.05;101511.72;5028787;28;20064;-50
2021/10/01 05:21:41;;;;;;;;;;;;;;;12.26;66.78;101510.56;5030682;28;20435;-52
2021/10/01 05:24:11;;;;;;;3.50;1.35;;;;;;;12.34;67.28;101507.38;5042612;28;20390;-52
2021/10/01 05:26:38;;;;;;;5.90;1.70;;;;;;;12.31;66.41;101507.91;5028818;28;20132;-51
2021/10/01 05:29:06;;;;;;;7.60;2.15;;;;;;;12.31;66.60;101513.38;5028794;28;20424;-52
2021/10/01 05:31:33;;;;;;;6.45;2.08;;;;;;;12.33;66.40;101505.72;5030615;28;20076;-54
2021/10/01 05:34:01;;;;;;;3.90;2.10;;;;;;;12.33;66.28;101508.44;5031830;28;20048;-55
2021/10/01 05:36:29;;;;;;;6.78;2.00;;;;;;;12.30;66.40;101508.97;5028409;28;20149;-52
2021/10/01 05:38:56;;;;;;;6.78;2.30;;;;;;;12.26;65.85;101507.03;5028584;28;20049;-52
2021/10/01 05:41:24;;;;;;;5.32;2.30;;;;;;;12.24;65.96;101507.31;5028832;28;20068;-53
2021/10/01 05:43:52;;;;;;;7.47;2.22;;;;;;;12.20;66.42;101508.91;5014660;28;20077;-54
2021/10/01 05:46:20;;;;;;;4.30;1.73;;;;;;;12.21;66.78;101512.47;5027872;28;20050;-53
2021/10/01 05:49:09;;;;;;;8.48;2.30;;;;;;;12.18;66.73;101510.25;5063139;28;20056;-51
2021/10/01 05:52:11;;;;;;;9.48;2.67;;;;;;;12.15;66.23;101503.41;5095014;28;20055;-54
2021/10/01 05:55:11;;;;;;;13.77;2.42;;;;;;;12.17;66.61;101503.13;5095273;28;20088;-53
2021/10/01 05:58:12;;;;;;;4.70;1.80;;;;;;;12.21;66.39;101507.81;5044250;28;20124;-53
2021/10/01 06:00:52;;;;;;;7.80;1.70;;;;;;;12.24;66.82;101506.47;5028431;28;20050;-54
2021/10/01 06:03:20;;;;;;;5.90;1.80;;;;;;;12.29;66.22;101510.06;5042314;28;20510;-54
2021/10/01 06:05:48;;;;;;;8.43;2.45;;;;;;;12.27;65.77;101500.50;5047419;28;20434;-54
2021/10/01 06:08:15;;;;;;;3.38;1.77;;;;;;;12.28;66.41;101504.84;5047846;28;20147;-53
2021/10/01 06:10:43;;;;;;;6.57;2.40;;;;;;;12.31;66.83;101512.53;5047732;28;20666;-54
2021/10/01 06:13:11;;;;;;;5.20;2.00;;;;;;;12.32;66.70;101511.47;5046288;28;20037;-50
2021/10/01 06:15:38;;;;;;;9.32;2.08;;;;;;;12.29;66.71;101506.50;5019398;28;20044;-46
2021/10/01 06:18:06;;;;;;;6.68;1.85;;;;;;;12.31;66.90;101504.31;5046903;28;20102;-48
2021/10/01 06:20:33;;;;;;;3.72;1.67;;;;;;;12.32;66.71;101504.06;5049598;28;20048;-50
2021/10/01 06:23:01;;;;;;;4.68;2.10;;;;;;;12.44;68.24;101514.81;5050160;28;20041;-48
2021/10/01 06:25:28;;;;;;;6.07;2.00;;;;;;;12.48;67.56;101509.63;5048242;28;20053;-48
2021/10/01 06:27:56;;;;;;;5.82;2.25;;;;;;;12.41;66.42;101503.56;5050016;28;20057;-49
2021/10/01 06:30:24;;;;;;;5.75;2.10;;;;;;;12.34;67.04;101510.09;5049785;28;20049;-48
2021/10/01 06:32:51;;;;;;;7.20;2.15;;;;;;;12.35;66.73;101514.47;5053301;28;20146;-48
2021/10/01 06:35:19;;;;;;;22.80;5.32;;;;;;;12.42;68.31;101513.44;5093047;28;20047;-48
2021/10/01 06:37:46;;;;;;;9.32;3.15;;;;;;;12.44;65.82;101503.88;5111668;28;20498;-47
2021/10/01 06:40:14;;;;;;;8.30;3.35;;;;;;;12.36;65.82;101510.66;5113014;28;20066;-50
2021/10/01 06:42:47;;;;;;;7.75;2.50;;;;;;;12.33;66.39;101502.97;5112695;28;20041;-49
2021/10/01 06:45:26;;;;;;;7.65;2.05;;;;;;;12.32;66.92;101504.06;5104918;28;20453;-48
2021/10/01 08:18:58;;;;;;;11.55;4.05;;;;;;;13.38;70.47;101482.16;5059815;28;20064;-49
2021/10/01 08:21:26;;;;;;;15.38;3.83;;;;;;;13.41;70.05;101487.06;5047823;28;20045;-48
2021/10/01 08:24:14;;;;;;;14.38;4.43;;;;;;;13.47;68.61;101490.63;5048494;28;20049;-48
2021/10/01 08:26:43;;;;;;;8.65;2.90;;;;;;;13.44;69.07;101492.00;5091548;28;20513;-47
2021/10/01 08:29:11;;;;;;;12.82;3.92;;;;;;;13.41;68.36;101481.59;5112267;28;20043;-48
2021/10/01 08:31:39;;;;;;;16.05;3.65;;;;;;;13.50;70.20;101481.91;5112846;28;20115;-46
2021/10/01 08:34:07;;;;;;;16.00;4.35;;;;;;;13.57;69.76;101477.00;5114647;27;20040;-45
2021/10/01 08:36:35;;;;;;;6.95;2.38;;;;;;;13.59;68.49;101472.88;5114699;27;20031;-48
2021/10/01 08:39:08;;;;;;;13.68;3.60;;;;;;;13.59;69.51;101472.88;5113510;28;20050;-45
2021/10/01 08:41:38;;;;;;;13.80;4.18;;;;;;;13.68;69.89;101475.06;5111502;28;20447;-45
2021/10/01 08:44:06;;;;;;;7.45;2.72;;;;;;;13.64;68.59;101464.66;5114592;28;20043;-46
2021/10/01 08:46:34;;;;;;;15.38;3.05;;;;;;;13.63;68.06;101463.00;5112411;28;20128;-45
2021/10/01 08:49:04;;;;;;;11.60;3.83;;;;;;;13.67;71.36;101460.56;5106654;28;20043;-50
2021/10/01 08:51:32;;;;;;;13.30;4.15;;;;;;;13.74;70.30;101457.56;5108541;28;20110;-48
2021/10/01 08:53:59;;;;;;;8.75;3.20;;;;;;;13.73;69.08;101455.91;5107080;28;20044;-47
2021/10/01 08:56:27;;;;;;;11.77;3.45;;;;;;;13.79;68.69;101449.34;5103009;28;20075;-49
2021/10/01 08:58:55;;;;;;;11.60;3.67;;;;;;;13.77;69.38;101455.06;5114385;28;20031;-50
2021/10/01 09:01:24;;;;;;;13.20;3.85;;;;;;;13.79;69.37;101454.81;5105641;28;20054;-48
2021/10/01 09:03:52;;;;;;;11.40;4.03;;;;;;;13.74;69.79;101454.81;5113991;28;20048;-46
2021/10/01 09:06:20;;;;;;;11.70;3.75;;;;;;;13.69;70.00;101450.16;5114545;28;20046;-45
2021/10/01 09:08:49;;;;;;;9.30;3.00;;;;;;;13.85;70.28;101448.22;5114529;28;20054;-49
2021/10/01 09:11:17;;;;;;;10.73;2.90;;;;;;;13.77;69.90;101454.25;5110650;28;20040;-48
2021/10/01 09:13:45;;;;;;;9.68;3.78;;;;;;;13.72;70.67;101459.75;5112416;28;20036;-46
2021/10/01 09:16:14;;;;;;;10.38;3.05;;;;;;;13.67;71.51;101455.06;5111865;28;20047;-48
2021/10/01 09:18:43;;;;;;;11.60;3.10;;;;;;;13.66;71.95;101455.34;5107510;28;20043;-48
2021/10/01 09:21:13;;;;;;;6.32;2.90;;;;;;;13.65;72.60;101449.06;5110861;28;20392;-50
2021/10/01 09:23:44;;;;;;;6.03;2.80;;;;;;;13.68;72.94;101444.94;5108687;28;20047;-49
2021/10/01 09:26:19;;;;;;;11.75;3.22;;;;;;;13.67;72.91;101444.13;5094956;28;20040;-49
2021/10/01 09:28:49;;;;;;;5.82;2.20;;;;;;;13.71;72.53;101437.00;5110962;28;20055;-47
2021/10/01 09:31:35;;;;;;;6.07;2.50;;;;;;;13.74;73.32;101435.66;5100873;28;20036;-48
2021/10/01 09:34:04;;;;;;;11.95;3.15;;;;;;;13.77;72.63;101433.16;5109537;28;20043;-49
2021/10/01 09:36:32;;;;;;;9.52;2.72;;;;;;;13.81;72.01;101434.25;5100292;28;20036;-46
2021/10/01 09:39:00;;;;;;;9.27;3.53;;;;;;;13.88;72.58;101427.66;5110331;28;20087;-48
2021/10/01 09:41:31;;;;;;;10.55;3.60;;;;;;;13.99;71.38;101426.56;5102469;28;20047;-47
2021/10/01 09:44:05;;;;;;;11.13;3.10;;;;;;;13.99;71.44;101421.91;5105827;28;20043;-50
2021/10/01 09:46:50;;;;;;;7.60;2.80;;;;;;;14.05;71.29;101420.81;5108659;28;20036;-48
2021/10/01 09:49:28;;;;;;;10.43;2.95;;;;;;;14.23;69.76;101421.31;5109773;28;20051;-50
2021/10/01 09:51:57;;;;;;;10.35;3.58;;;;;;;14.24;69.81;101425.72;5107275;28;20479;-49
2021/10/01 09:54:27;;;;;;;6.40;2.40;;;;;;;14.26;70.05;101427.09;5106172;28;20536;-49
2021/10/01 09:57:01;;;;;;;11.90;3.03;;;;;;;14.23;69.40;101421.31;5106038;28;20043;-50
2021/10/01 09:59:30;;;;;;;8.20;3.30;;;;;;;14.25;70.19;101414.47;5107371;28;20052;-48
2021/10/01 10:02:13;;;;;;;8.95;2.90;;;;;;;14.28;70.05;101410.34;5104446;28;20070;-52
2021/10/01 10:04:48;;;;;;;7.85;2.60;;;;;;;14.25;68.48;101403.50;5101023;28;20525;-52
2021/10/01 10:07:24;;;;;;;7.65;2.45;;;;;;;14.24;70.09;101401.06;5107989;28;20493;-48
2021/10/01 10:09:52;;;;;;;;;;;;;;;14.28;69.36;101404.84;5106511;28;20444;-53
2021/10/01 10:12:22;;;;;;;10.25;3.20;;;;;;;14.34;69.97;101394.72;5108774;28;19923;-48
2021/10/01 10:14:52;;;;;;;11.32;2.97;;;;;;;14.41;68.83;101393.31;5091382;28;20048;-48
2021/10/01 10:17:23;;;;;;;9.02;3.03;;;;;;;14.40;68.43;101388.91;5104370;28;20054;-48
2021/10/01 10:19:53;;;;;;;8.10;2.70;;;;;;;14.36;67.99;101390.59;5107503;28;20039;-49
2021/10/01 10:22:21;;;;;;;9.57;3.00;;;;;;;14.39;69.36;101392.78;5103325;28;20040;-48
2021/10/01 10:24:50;;;;;;;10.02;2.60;;;;;;;14.38;69.33;101391.13;5100562;28;20039;-45
2021/10/01 10:27:20;;;;;;;11.07;3.15;;;;;;;14.43;70.87;101382.91;5105363;28;20055;-48
2021/10/01 10:29:51;;;;;;;8.90;2.28;;;;;;;14.49;69.49;101379.00;5106134;28;20048;-48
2021/10/01 10:32:23;;;;;;;6.00;2.28;;;;;;;14.51;69.91;101386.16;5105703;28;20039;-52
2021/10/01 10:34:56;;;;;;;9.43;2.80;;;;;;;14.49;69.89;101383.69;5099276;28;20509;-49
2021/10/01 10:37:36;;;;;;;13.30;3.40;;;;;;;14.53;71.16;101386.66;5109216;28;20561;-49
2021/10/01 10:40:09;;;;;;;10.00;2.80;;;;;;;14.52;69.06;101385.03;5100434;28;20054;-49
2021/10/01 10:42:41;;;;;;;8.38;2.53;;;;;;;14.53;69.59;101383.94;5107992;28;20068;-51
2021/10/01 10:45:36;;;;;;;8.13;3.03;;;;;;;14.62;70.41;101380.38;5098273;28;20040;-49
2021/10/01 10:48:11;;;;;;;6.38;2.50;;;;;;;14.66;68.72;101372.41;5099292;28;20406;-48
2021/10/01 10:50:40;;;;;;;5.10;2.53;;;;;;;14.76;71.64;101364.09;5112581;28;20051;-47
2021/10/01 10:53:11;;;;;;;7.82;2.67;;;;;;;14.78;67.33;101367.38;5102845;28;20036;-48
2021/10/01 10:55:59;;;;;;;8.27;2.42;;;;;;;14.77;67.74;101368.50;5105584;28;20490;-48
2021/10/01 10:58:31;;;;;;;8.13;2.42;;;;;;;14.77;67.17;101370.41;5109472;28;20040;-49
2021/10/01 11:01:14;;;;;;;10.20;2.88;;;;;;;14.81;67.84;101366.81;5102019;28;20044;-50
2021/10/01 11:03:47;;;;;;;4.88;2.03;;;;;;;14.84;67.33;101358.03;5110335;28;20044;-51
2021/10/01 11:06:20;;;;;;;10.30;3.03;;;;;;;14.93;67.40;101351.94;5108949;28;20035;-48
2021/10/01 11:09:14;;;;;;;6.43;2.80;;;;;;;15.01;69.29;101349.44;5095974;28;20520;-49
2021/10/01 11:11:44;;;;;;;9.07;2.85;;;;;;;15.10;66.26;101346.88;5103730;28;20522;-49
2021/10/01 11:14:28;;;;;;;8.43;3.03;;;;;;;15.15;66.53;101344.09;5105421;28;20810;-47
2021/10/01 11:16:58;;;;;;;7.78;2.80;;;;;;;15.16;65.19;101340.25;5080205;28;20043;-48
2021/10/01 11:19:42;;;;;;;4.68;2.05;;;;;;;15.15;65.63;101344.09;5102546;28;20445;-50
2021/10/01 11:22:38;;;;;;;7.50;2.70;;;;;;;15.16;67.53;101339.44;5101511;28;20044;-50
2021/10/01 11:25:12;;;;;;;;;;;;;;;15.16;64.71;101333.94;5097185;28;20044;-50
2021/10/01 11:27:52;;;;;;;7.25;2.60;;;;;;;15.10;63.46;101324.91;5108657;28;20275;-49
2021/10/01 11:30:21;;;;;;;6.85;2.25;;;;;;;15.08;63.42;101321.63;5097418;28;20040;-52
2021/10/01 11:32:49;;;;;;;9.00;2.60;;;;;;;15.09;63.69;101317.81;5095919;28;20036;-51
2021/10/01 11:35:17;;;;;;;8.00;2.47;;;;;;;15.11;63.30;101321.09;5097061;28;20453;-49
2021/10/01 11:37:48;;;;;;;5.10;2.25;;;;;;;15.20;63.97;101329.50;5099849;28;20032;-50
2021/10/01 11:40:28;;;;;;;6.78;2.15;;;;;;;15.27;66.43;101328.09;5098821;28;20071;-53
2021/10/01 11:42:58;;;;;;;8.35;2.30;;;;;;;15.23;64.36;101318.78;5102444;28;20039;-50
2021/10/01 11:45:26;;;;;;;9.88;2.85;;;;;;;15.27;65.13;101319.88;5104730;28;20061;-50
2021/10/01 11:48:02;;;;;;;6.97;2.70;;;;;;;15.26;66.65;101314.66;5102812;28;20061;-48
2021/10/01 11:50:50;;;;;;;8.27;2.53;;;;;;;15.36;66.17;101321.97;5097868;28;20046;-52
2021/10/01 11:53:25;;;;;;;5.10;2.20;;;;;;;15.41;67.69;101314.50;5097825;28;20075;-48
2021/10/01 11:55:58;;;;;;;7.18;2.45;;;;;;;15.40;62.58;101317.56;5102475;28;20038;-48
2021/10/01 11:58:28;;;;;;;9.45;2.50;;;;;;;15.37;61.63;101318.09;5103371;28;20116;-47
2021/10/01 12:01:07;;;;;;;9.77;3.03;;;;;;;15.39;62.04;101310.41;5100344;28;20052;-50
2021/10/01 12:03:35;;;;;;;7.40;2.72;;;;;;;15.42;61.59;101309.84;5096005;28;20043;-49
2021/10/01 12:06:03;;;;;;;8.10;2.55;;;;;;;15.44;61.42;101302.97;5103588;28;20035;-49
2021/10/01 12:08:35;;;;;;;7.90;2.22;;;;;;;15.46;60.19;101300.72;5105945;28;20033;-48
2021/10/01 12:11:02;;;;;;;8.73;2.50;;;;;;;15.46;60.11;101305.41;5108941;28;20499;-51
2021/10/01 12:13:33;;;;;;;5.93;2.47;;;;;;;15.52;61.71;101302.31;5110207;28;20552;-49
2021/10/01 12:16:11;;;;;;;7.47;2.35;;;;;;;15.56;62.26;101297.06;5113775;28;20130;-48
2021/10/01 12:18:44;;;;;;;;;;;;;;;15.57;64.94;101295.97;5109477;28;20074;-48
2021/10/01 12:21:18;;;;;;;6.07;2.35;;;;;;;15.62;63.49;101290.41;5109607;28;19924;-48
2021/10/01 12:24:12;;;;;;;7.45;2.47;;;;;;;15.59;62.41;101291.00;5110145;28;20044;-50
2021/10/01 12:26:42;;;;;;;6.47;2.22;;;;;;;15.64;62.92;101287.38;5108658;28;20462;-47
2021/10/01 12:29:13;;;;;;;5.20;2.08;;;;;;;15.67;63.87;101292.28;5108043;28;20046;-48
2021/10/01 12:32:13;;;;;;;5.95;2.40;;;;;;;15.68;65.20;101286.53;5108191;28;20047;-48
2021/10/01 12:34:50;;;;;;;9.65;2.70;;;;;;;15.69;62.00;101282.66;5071739;28;20048;-51
2021/10/01 12:37:21;;;;;;;5.68;2.22;;;;;;;15.76;63.24;101285.91;5071430;28;20076;-50
2021/10/01 12:39:59;;;;;;;6.28;2.50;;;;;;;15.82;62.84;101283.09;5072371;28;20055;-49
2021/10/01 12:42:31;;;;;;;7.10;2.60;;;;;;;15.88;63.62;101279.19;5071985;28;20040;-50
2021/10/01 12:45:13;;;;;;;10.55;2.95;;;;;;;15.87;61.18;101266.53;5071950;28;20048;-50
2021/10/01 12:47:44;;;;;;;5.53;2.40;;;;;;;15.94;63.23;101267.81;5050486;28;20431;-50
2021/10/01 12:50:13;;;;;;;6.13;2.42;;;;;;;15.94;62.09;101267.81;5070920;28;20055;-51
2021/10/01 12:52:55;;;;;;;5.65;2.28;;;;;;;15.96;63.34;101270.28;5054939;28;20041;-52
2021/10/01 12:55:23;;;;;;;16.90;2.67;;;;;;;15.94;61.89;101278.00;5055126;28;20124;-52
2021/10/01 12:57:51;;;;;;;6.80;2.30;;;;;;;15.97;62.37;101272.75;5071511;28;20091;-51
2021/10/01 13:00:21;;;;;;;6.75;2.40;;;;;;;15.98;62.93;101279.06;5071325;28;20036;-48
2021/10/01 13:03:06;;;;;;;6.22;2.45;;;;;;;15.94;63.80;101281.56;5072014;28;20048;-50
2021/10/01 13:05:36;;;;;;;5.03;1.95;;;;;;;15.98;63.37;101279.06;5071288;28;20043;-48
2021/10/01 13:08:03;;;;;;;7.97;2.05;;;;;;;16.06;62.67;101275.66;5071277;28;20419;-50
2021/10/01 13:10:38;;;;;;;8.98;2.75;;;;;;;16.10;61.03;101264.91;5089059;28;20074;-46
2021/10/01 13:13:28;;;;;;;5.82;2.30;;;;;;;16.10;61.98;101284.94;5113661;28;20044;-48
2021/10/01 13:16:00;;;;;;;7.47;2.38;;;;;;;16.10;61.68;101282.22;5099929;28;20379;-49
2021/10/01 13:18:34;;;;;;;5.68;2.03;;;;;;;16.08;62.16;101273.44;5111138;28;20055;-47
2021/10/01 13:21:14;;;;;;;7.72;2.42;;;;;;;16.05;63.24;101279.53;5100230;28;20048;-47
2021/10/01 13:23:46;;;;;;;6.47;2.30;;;;;;;16.21;62.78;101269.16;5113897;28;20058;-50